sensor_id;sensor_type;location;lat;lon;timestamp;temperature;humidity
2967;DHT22;1493;51.496;7.210;2022-11-11T00:00:57;11.30;99.90
2967;DHT22;1493;51.496;7.210;2022-11-11T00:03:24;11.30;99.90
2967;DHT22;1493;51.496;7.210;2022-11-11T00:05:51;11.30;99.90
2967;DHT22;1493;51.496;7.210;2022-11-11T00:08:18;11.30;99.90
2967;DHT22;1493;51.496;7.210;2022-11-11T00:10:44;11.30;99.90
2967;DHT22;1493;51.496;7.210;2022-11-11T00:13:13;11.30;99.90
2967;DHT22;1493;51.496;7.210;2022-11-11T00:15:39;11.30;99.90
2967;DHT22;1493;51.496;7.210;2022-11-11T00:18:09;11.20;99.90
2967;DHT22;1493;51.496;7.210;2022-11-11T00:20:53;11.20;99.90
2967;DHT22;1493;51.496;7.210;2022-11-11T00:23:37;11.00;99.90
2967;DHT22;1493;51.496;7.210;2022-11-11T00:26:21;11.00;99.90
2967;DHT22;1493;51.496;7.210;2022-11-11T00:28:53;11.00;99.90
2967;DHT22;1493;51.496;7.210;2022-11-11T00:31:20;11.00;99.90
2967;DHT22;1493;51.496;7.210;2022-11-11T00:33:46;11.00;99.90
2967;DHT22;1493;51.496;7.210;2022-11-11T00:36:13;11.00;99.90
2967;DHT22;1493;51.496;7.210;2022-11-11T00:38:40;11.00;99.90
2967;DHT22;1493;51.496;7.210;2022-11-11T00:41:15;11.00;99.90
2967;DHT22;1493;51.496;7.210;2022-11-11T00:43:43;11.00;99.90
2967;DHT22;1493;51.496;7.210;2022-11-11T00:46:12;10.90;99.90
2967;DHT22;1493;51.496;7.210;2022-11-11T00:49:01;11.00;99.90
2967;DHT22;1493;51.496;7.210;2022-11-11T00:51:46;10.90;99.90
2967;DHT22;1493;51.496;7.210;2022-11-11T00:54:13;11.00;99.90
2967;DHT22;1493;51.496;7.210;2022-11-11T00:56:39;10.90;99.90
2967;DHT22;1493;51.496;7.210;2022-11-11T00:59:07;10.90;99.90
2967;DHT22;1493;51.496;7.210;2022-11-11T01:01:36;10.80;99.90
2967;DHT22;1493;51.496;7.210;2022-11-11T01:04:03;10.90;99.90
2967;DHT22;1493;51.496;7.210;2022-11-11T01:06:31;10.80;99.90
2967;DHT22;1493;51.496;7.210;2022-11-11T01:09:00;10.80;99.90
2967;DHT22;1493;51.496;7.210;2022-11-11T01:11:29;10.80;99.90
2967;DHT22;1493;51.496;7.210;2022-11-11T01:13:56;10.90;99.90
2967;DHT22;1493;51.496;7.210;2022-11-11T01:16:24;10.90;99.90
2967;DHT22;1493;51.496;7.210;2022-11-11T01:18:53;10.90;99.90
2967;DHT22;1493;51.496;7.210;2022-11-11T01:21:22;10.80;99.90
2967;DHT22;1493;51.496;7.210;2022-11-11T01:23:50;10.80;99.90
2967;DHT22;1493;51.496;7.210;2022-11-11T01:26:19;10.90;99.90
2967;DHT22;1493;51.496;7.210;2022-11-11T01:28:48;11.00;99.90
2967;DHT22;1493;51.496;7.210;2022-11-11T01:31:16;11.00;99.90
2967;DHT22;1493;51.496;7.210;2022-11-11T01:33:43;11.00;99.90
2967;DHT22;1493;51.496;7.210;2022-11-11T01:36:14;10.90;99.90
2967;DHT22;1493;51.496;7.210;2022-11-11T01:38:41;10.90;99.90
2967;DHT22;1493;51.496;7.210;2022-11-11T01:41:12;10.90;99.90
2967;DHT22;1493;51.496;7.210;2022-11-11T01:44:02;10.80;99.90
2967;DHT22;1493;51.496;7.210;2022-11-11T01:46:42;10.80;99.90
2967;DHT22;1493;51.496;7.210;2022-11-11T01:49:20;10.80;99.90
2967;DHT22;1493;51.496;7.210;2022-11-11T01:51:52;10.70;99.90
2967;DHT22;1493;51.496;7.210;2022-11-11T01:54:23;10.80;99.90
2967;DHT22;1493;51.496;7.210;2022-11-11T01:56:57;10.70;99.90
2967;DHT22;1493;51.496;7.210;2022-11-11T01:59:25;10.70;99.90
2967;DHT22;1493;51.496;7.210;2022-11-11T02:01:53;10.60;99.90
2967;DHT22;1493;51.496;7.210;2022-11-11T02:04:20;10.60;99.90
2967;DHT22;1493;51.496;7.210;2022-11-11T02:07:08;10.70;99.90
2967;DHT22;1493;51.496;7.210;2022-11-11T02:09:38;10.70;99.90
2967;DHT22;1493;51.496;7.210;2022-11-11T02:12:07;10.70;99.90
2967;DHT22;1493;51.496;7.210;2022-11-11T02:14:54;10.70;99.90
2967;DHT22;1493;51.496;7.210;2022-11-11T02:17:23;10.50;99.90
2967;DHT22;1493;51.496;7.210;2022-11-11T02:19:54;10.50;99.90
2967;DHT22;1493;51.496;7.210;2022-11-11T02:22:37;10.50;99.90
2967;DHT22;1493;51.496;7.210;2022-11-11T02:25:09;10.50;99.90
2967;DHT22;1493;51.496;7.210;2022-11-11T02:27:40;10.50;99.90
2967;DHT22;1493;51.496;7.210;2022-11-11T02:30:09;10.50;99.90
2967;DHT22;1493;51.496;7.210;2022-11-11T02:32:40;10.50;99.90
2967;DHT22;1493;51.496;7.210;2022-11-11T02:35:12;10.40;99.90
2967;DHT22;1493;51.496;7.210;2022-11-11T02:37:41;10.40;99.90
2967;DHT22;1493;51.496;7.210;2022-11-11T02:40:12;10.30;99.90
2967;DHT22;1493;51.496;7.210;2022-11-11T02:42:39;10.30;99.90
2967;DHT22;1493;51.496;7.210;2022-11-11T02:45:07;10.40;99.90
2967;DHT22;1493;51.496;7.210;2022-11-11T02:47:34;10.40;99.90
2967;DHT22;1493;51.496;7.210;2022-11-11T02:50:01;10.30;99.90
2967;DHT22;1493;51.496;7.210;2022-11-11T02:52:28;10.30;99.90
2967;DHT22;1493;51.496;7.210;2022-11-11T02:54:55;10.30;99.90
2967;DHT22;1493;51.496;7.210;2022-11-11T02:57:23;10.10;99.90
2967;DHT22;1493;51.496;7.210;2022-11-11T02:59:50;10.10;99.90
2967;DHT22;1493;51.496;7.210;2022-11-11T03:02:17;10.20;99.90
2967;DHT22;1493;51.496;7.210;2022-11-11T03:04:43;10.20;99.90
2967;DHT22;1493;51.496;7.210;2022-11-11T03:07:10;10.20;99.90
2967;DHT22;1493;51.496;7.210;2022-11-11T03:09:37;10.10;99.90
2967;DHT22;1493;51.496;7.210;2022-11-11T03:12:04;10.20;99.90
2967;DHT22;1493;51.496;7.210;2022-11-11T03:14:32;10.20;99.90
2967;DHT22;1493;51.496;7.210;2022-11-11T03:16:59;10.20;99.90
2967;DHT22;1493;51.496;7.210;2022-11-11T03:19:44;10.20;99.90
2967;DHT22;1493;51.496;7.210;2022-11-11T03:22:10;10.20;99.90
2967;DHT22;1493;51.496;7.210;2022-11-11T03:24:36;10.20;99.90
2967;DHT22;1493;51.496;7.210;2022-11-11T03:27:20;10.20;99.90
2967;DHT22;1493;51.496;7.210;2022-11-11T03:29:49;10.20;99.90
2967;DHT22;1493;51.496;7.210;2022-11-11T03:32:15;10.20;99.90
2967;DHT22;1493;51.496;7.210;2022-11-11T03:34:42;10.20;99.90
2967;DHT22;1493;51.496;7.210;2022-11-11T03:37:10;10.30;99.90
2967;DHT22;1493;51.496;7.210;2022-11-11T03:39:55;10.30;99.90
2967;DHT22;1493;51.496;7.210;2022-11-11T03:42:22;10.30;99.90
2967;DHT22;1493;51.496;7.210;2022-11-11T03:44:50;10.20;99.90
2967;DHT22;1493;51.496;7.210;2022-11-11T03:47:17;10.30;99.90
2967;DHT22;1493;51.496;7.210;2022-11-11T03:49:45;10.30;99.90
2967;DHT22;1493;51.496;7.210;2022-11-11T03:52:12;10.30;99.90
2967;DHT22;1493;51.496;7.210;2022-11-11T03:54:39;10.30;99.90
2967;DHT22;1493;51.496;7.210;2022-11-11T03:57:05;10.20;99.90
2967;DHT22;1493;51.496;7.210;2022-11-11T04:00:04;10.30;99.90
2967;DHT22;1493;51.496;7.210;2022-11-11T04:02:31;10.40;99.90
2967;DHT22;1493;51.496;7.210;2022-11-11T04:05:15;10.30;99.90
2967;DHT22;1493;51.496;7.210;2022-11-11T04:07:59;10.40;99.90
2967;DHT22;1493;51.496;7.210;2022-11-11T04:10:44;10.40;99.90
2967;DHT22;1493;51.496;7.210;2022-11-11T04:13:11;10.30;99.90
2967;DHT22;1493;51.496;7.210;2022-11-11T04:15:57;10.30;99.90
2967;DHT22;1493;51.496;7.210;2022-11-11T04:18:33;10.20;99.90
2967;DHT22;1493;51.496;7.210;2022-11-11T04:21:18;10.20;99.90
2967;DHT22;1493;51.496;7.210;2022-11-11T04:24:03;10.10;99.90
2967;DHT22;1493;51.496;7.210;2022-11-11T04:26:53;10.20;99.90
2967;DHT22;1493;51.496;7.210;2022-11-11T04:29:19;10.20;99.90
2967;DHT22;1493;51.496;7.210;2022-11-11T04:31:58;10.20;99.90
2967;DHT22;1493;51.496;7.210;2022-11-11T04:34:44;10.20;99.90
2967;DHT22;1493;51.496;7.210;2022-11-11T04:37:11;10.00;99.90
2967;DHT22;1493;51.496;7.210;2022-11-11T04:39:38;10.10;99.90
2967;DHT22;1493;51.496;7.210;2022-11-11T04:42:23;10.10;99.90
2967;DHT22;1493;51.496;7.210;2022-11-11T04:44:50;10.10;99.90
2967;DHT22;1493;51.496;7.210;2022-11-11T04:47:36;10.00;99.90
2967;DHT22;1493;51.496;7.210;2022-11-11T04:50:04;10.00;99.90
2967;DHT22;1493;51.496;7.210;2022-11-11T04:52:31;10.10;99.90
2967;DHT22;1493;51.496;7.210;2022-11-11T04:54:59;10.10;99.90
2967;DHT22;1493;51.496;7.210;2022-11-11T04:57:45;10.10;99.90
2967;DHT22;1493;51.496;7.210;2022-11-11T05:00:13;10.20;99.90
2967;DHT22;1493;51.496;7.210;2022-11-11T05:02:42;10.20;99.90
2967;DHT22;1493;51.496;7.210;2022-11-11T05:05:27;10.30;99.90
2967;DHT22;1493;51.496;7.210;2022-11-11T05:07:54;10.30;99.90
2967;DHT22;1493;51.496;7.210;2022-11-11T05:10:38;10.20;99.90
2967;DHT22;1493;51.496;7.210;2022-11-11T05:13:05;10.30;99.90
2967;DHT22;1493;51.496;7.210;2022-11-11T05:15:50;10.30;99.90
2967;DHT22;1493;51.496;7.210;2022-11-11T05:18:50;10.40;99.90
2967;DHT22;1493;51.496;7.210;2022-11-11T05:21:34;10.30;99.90
2967;DHT22;1493;51.496;7.210;2022-11-11T05:24:01;10.30;99.90
2967;DHT22;1493;51.496;7.210;2022-11-11T05:26:46;10.30;99.90
2967;DHT22;1493;51.496;7.210;2022-11-11T05:29:12;10.30;99.90
2967;DHT22;1493;51.496;7.210;2022-11-11T05:31:39;10.30;99.90
2967;DHT22;1493;51.496;7.210;2022-11-11T05:34:07;10.20;99.90
2967;DHT22;1493;51.496;7.210;2022-11-11T05:36:34;10.20;99.90
2967;DHT22;1493;51.496;7.210;2022-11-11T05:39:03;10.20;99.90
2967;DHT22;1493;51.496;7.210;2022-11-11T05:41:30;10.20;99.90
2967;DHT22;1493;51.496;7.210;2022-11-11T05:43:57;10.20;99.90
2967;DHT22;1493;51.496;7.210;2022-11-11T05:46:24;10.20;99.90
2967;DHT22;1493;51.496;7.210;2022-11-11T05:48:51;10.20;99.90
2967;DHT22;1493;51.496;7.210;2022-11-11T05:51:42;10.20;99.90
2967;DHT22;1493;51.496;7.210;2022-11-11T05:54:09;10.10;99.90
2967;DHT22;1493;51.496;7.210;2022-11-11T05:56:35;10.20;99.90
2967;DHT22;1493;51.496;7.210;2022-11-11T05:59:02;10.10;99.90
2967;DHT22;1493;51.496;7.210;2022-11-11T06:01:29;10.10;99.90
2967;DHT22;1493;51.496;7.210;2022-11-11T06:03:57;10.10;99.90
2967;DHT22;1493;51.496;7.210;2022-11-11T06:06:24;10.10;99.90
2967;DHT22;1493;51.496;7.210;2022-11-11T06:08:52;10.10;99.90
2967;DHT22;1493;51.496;7.210;2022-11-11T06:11:19;10.10;99.90
2967;DHT22;1493;51.496;7.210;2022-11-11T06:13:47;10.10;99.90
2967;DHT22;1493;51.496;7.210;2022-11-11T06:16:14;10.10;99.90
2967;DHT22;1493;51.496;7.210;2022-11-11T06:18:41;10.00;99.90
2967;DHT22;1493;51.496;7.210;2022-11-11T06:21:08;10.00;99.90
2967;DHT22;1493;51.496;7.210;2022-11-11T06:23:35;9.90;99.90
2967;DHT22;1493;51.496;7.210;2022-11-11T06:26:04;9.90;99.90
2967;DHT22;1493;51.496;7.210;2022-11-11T06:28:40;9.90;99.90
2967;DHT22;1493;51.496;7.210;2022-11-11T06:31:07;9.90;99.90
2967;DHT22;1493;51.496;7.210;2022-11-11T06:33:35;9.90;99.90
2967;DHT22;1493;51.496;7.210;2022-11-11T06:36:03;9.90;99.90
2967;DHT22;1493;51.496;7.210;2022-11-11T06:38:31;9.80;99.90
2967;DHT22;1493;51.496;7.210;2022-11-11T06:40:58;9.80;99.90
2967;DHT22;1493;51.496;7.210;2022-11-11T06:43:26;9.70;99.90
2967;DHT22;1493;51.496;7.210;2022-11-11T06:45:54;9.70;99.90
2967;DHT22;1493;51.496;7.210;2022-11-11T06:48:22;9.70;99.90
2967;DHT22;1493;51.496;7.210;2022-11-11T06:50:49;9.70;99.90
2967;DHT22;1493;51.496;7.210;2022-11-11T06:53:18;9.70;99.90
2967;DHT22;1493;51.496;7.210;2022-11-11T06:55:45;9.70;99.90
2967;DHT22;1493;51.496;7.210;2022-11-11T06:58:13;9.60;99.90
2967;DHT22;1493;51.496;7.210;2022-11-11T07:00:44;9.60;99.90
2967;DHT22;1493;51.496;7.210;2022-11-11T07:03:12;9.60;99.90
2967;DHT22;1493;51.496;7.210;2022-11-11T07:05:39;9.60;99.90
2967;DHT22;1493;51.496;7.210;2022-11-11T07:08:08;9.60;99.90
2967;DHT22;1493;51.496;7.210;2022-11-11T07:10:36;9.50;99.90
2967;DHT22;1493;51.496;7.210;2022-11-11T07:13:04;9.50;99.90
2967;DHT22;1493;51.496;7.210;2022-11-11T07:15:31;9.60;99.90
2967;DHT22;1493;51.496;7.210;2022-11-11T07:18:00;9.60;99.90
2967;DHT22;1493;51.496;7.210;2022-11-11T07:20:27;9.60;99.90
2967;DHT22;1493;51.496;7.210;2022-11-11T07:22:54;9.60;99.90
2967;DHT22;1493;51.496;7.210;2022-11-11T07:25:21;9.50;99.90
2967;DHT22;1493;51.496;7.210;2022-11-11T07:27:47;9.60;99.90
2967;DHT22;1493;51.496;7.210;2022-11-11T07:30:14;9.60;99.90
2967;DHT22;1493;51.496;7.210;2022-11-11T07:32:44;9.70;99.90
2967;DHT22;1493;51.496;7.210;2022-11-11T07:35:13;9.80;99.90
2967;DHT22;1493;51.496;7.210;2022-11-11T07:37:40;9.90;99.90
2967;DHT22;1493;51.496;7.210;2022-11-11T07:40:08;10.00;99.90
2967;DHT22;1493;51.496;7.210;2022-11-11T07:42:35;10.10;99.90
2967;DHT22;1493;51.496;7.210;2022-11-11T07:45:02;10.20;99.90
2967;DHT22;1493;51.496;7.210;2022-11-11T07:47:29;10.30;99.90
2967;DHT22;1493;51.496;7.210;2022-11-11T07:49:55;10.40;99.90
2967;DHT22;1493;51.496;7.210;2022-11-11T07:52:26;10.50;99.90
2967;DHT22;1493;51.496;7.210;2022-11-11T07:54:53;10.60;99.90
2967;DHT22;1493;51.496;7.210;2022-11-11T07:57:20;10.70;99.90
2967;DHT22;1493;51.496;7.210;2022-11-11T07:59:46;10.80;99.90
2967;DHT22;1493;51.496;7.210;2022-11-11T08:02:13;10.90;99.90
2967;DHT22;1493;51.496;7.210;2022-11-11T08:04:40;11.00;99.90
2967;DHT22;1493;51.496;7.210;2022-11-11T08:07:07;11.10;99.90
2967;DHT22;1493;51.496;7.210;2022-11-11T08:09:35;11.20;99.90
2967;DHT22;1493;51.496;7.210;2022-11-11T08:12:02;11.20;99.90
2967;DHT22;1493;51.496;7.210;2022-11-11T08:14:46;11.30;99.90
2967;DHT22;1493;51.496;7.210;2022-11-11T08:17:13;11.40;99.90
2967;DHT22;1493;51.496;7.210;2022-11-11T08:19:40;11.40;99.90
2967;DHT22;1493;51.496;7.210;2022-11-11T08:22:07;11.50;99.90
2967;DHT22;1493;51.496;7.210;2022-11-11T08:24:35;11.60;99.90
2967;DHT22;1493;51.496;7.210;2022-11-11T08:27:02;11.60;99.90
2967;DHT22;1493;51.496;7.210;2022-11-11T08:29:29;11.70;99.90
2967;DHT22;1493;51.496;7.210;2022-11-11T08:31:56;11.70;99.90
2967;DHT22;1493;51.496;7.210;2022-11-11T08:34:23;11.80;99.90
2967;DHT22;1493;51.496;7.210;2022-11-11T08:36:50;11.80;99.90
2967;DHT22;1493;51.496;7.210;2022-11-11T08:39:16;12.00;99.90
2967;DHT22;1493;51.496;7.210;2022-11-11T08:41:45;12.10;99.90
2967;DHT22;1493;51.496;7.210;2022-11-11T08:44:11;12.20;99.90
2967;DHT22;1493;51.496;7.210;2022-11-11T08:46:39;12.20;99.90
2967;DHT22;1493;51.496;7.210;2022-11-11T08:49:06;12.30;99.90
2967;DHT22;1493;51.496;7.210;2022-11-11T08:51:35;12.40;99.90
2967;DHT22;1493;51.496;7.210;2022-11-11T08:54:02;12.50;99.90
2967;DHT22;1493;51.496;7.210;2022-11-11T08:56:29;12.60;99.90
2967;DHT22;1493;51.496;7.210;2022-11-11T08:58:57;12.60;99.90
2967;DHT22;1493;51.496;7.210;2022-11-11T09:01:24;12.70;99.90
2967;DHT22;1493;51.496;7.210;2022-11-11T09:03:51;12.70;99.90
2967;DHT22;1493;51.496;7.210;2022-11-11T09:06:18;12.70;99.90
2967;DHT22;1493;51.496;7.210;2022-11-11T09:08:45;12.80;99.90
2967;DHT22;1493;51.496;7.210;2022-11-11T09:11:11;12.90;99.90
2967;DHT22;1493;51.496;7.210;2022-11-11T09:13:38;13.00;99.90
2967;DHT22;1493;51.496;7.210;2022-11-11T09:16:08;13.10;99.90
2967;DHT22;1493;51.496;7.210;2022-11-11T09:18:34;13.10;99.90
2967;DHT22;1493;51.496;7.210;2022-11-11T09:21:01;13.20;99.90
2967;DHT22;1493;51.496;7.210;2022-11-11T09:23:28;13.20;99.90
2967;DHT22;1493;51.496;7.210;2022-11-11T09:25:56;13.20;99.90
2967;DHT22;1493;51.496;7.210;2022-11-11T09:28:23;13.30;99.90
2967;DHT22;1493;51.496;7.210;2022-11-11T09:30:50;13.30;99.90
2967;DHT22;1493;51.496;7.210;2022-11-11T09:33:18;13.30;99.90
2967;DHT22;1493;51.496;7.210;2022-11-11T09:35:45;13.30;99.90
2967;DHT22;1493;51.496;7.210;2022-11-11T09:38:12;13.30;99.90
2967;DHT22;1493;51.496;7.210;2022-11-11T09:40:48;13.40;99.90
2967;DHT22;1493;51.496;7.210;2022-11-11T09:43:27;13.40;99.90
2967;DHT22;1493;51.496;7.210;2022-11-11T09:46:16;13.50;99.90
2967;DHT22;1493;51.496;7.210;2022-11-11T09:48:59;13.50;99.90
2967;DHT22;1493;51.496;7.210;2022-11-11T09:51:30;13.60;99.90
2967;DHT22;1493;51.496;7.210;2022-11-11T09:54:00;13.60;99.90
2967;DHT22;1493;51.496;7.210;2022-11-11T09:56:29;13.70;99.90
2967;DHT22;1493;51.496;7.210;2022-11-11T09:59:02;13.70;99.90
2967;DHT22;1493;51.496;7.210;2022-11-11T10:01:35;13.80;99.90
2967;DHT22;1493;51.496;7.210;2022-11-11T10:04:16;13.80;99.90
2967;DHT22;1493;51.496;7.210;2022-11-11T10:06:45;14.00;99.90
2967;DHT22;1493;51.496;7.210;2022-11-11T10:09:19;14.10;99.90
2967;DHT22;1493;51.496;7.210;2022-11-11T10:11:52;14.20;99.90
2967;DHT22;1493;51.496;7.210;2022-11-11T10:14:20;14.30;99.90
2967;DHT22;1493;51.496;7.210;2022-11-11T10:16:56;14.30;99.90
2967;DHT22;1493;51.496;7.210;2022-11-11T10:19:29;14.20;99.90
2967;DHT22;1493;51.496;7.210;2022-11-11T10:21:59;14.00;99.90
2967;DHT22;1493;51.496;7.210;2022-11-11T10:24:28;14.10;99.90
2967;DHT22;1493;51.496;7.210;2022-11-11T10:26:59;14.30;99.90
2967;DHT22;1493;51.496;7.210;2022-11-11T10:29:34;14.40;99.90
2967;DHT22;1493;51.496;7.210;2022-11-11T10:32:08;14.50;99.90
2967;DHT22;1493;51.496;7.210;2022-11-11T10:34:37;14.70;99.90
2967;DHT22;1493;51.496;7.210;2022-11-11T10:37:15;14.80;99.90
2967;DHT22;1493;51.496;7.210;2022-11-11T10:39:55;14.90;99.90
2967;DHT22;1493;51.496;7.210;2022-11-11T10:42:24;14.90;99.90
2967;DHT22;1493;51.496;7.210;2022-11-11T10:44:55;15.00;99.90
2967;DHT22;1493;51.496;7.210;2022-11-11T10:47:34;15.00;99.90
2967;DHT22;1493;51.496;7.210;2022-11-11T10:50:13;15.10;99.90
2967;DHT22;1493;51.496;7.210;2022-11-11T10:52:44;15.30;99.90
2967;DHT22;1493;51.496;7.210;2022-11-11T10:55:17;15.50;99.90
2967;DHT22;1493;51.496;7.210;2022-11-11T10:57:49;15.60;99.90
2967;DHT22;1493;51.496;7.210;2022-11-11T11:00:17;15.70;99.90
2967;DHT22;1493;51.496;7.210;2022-11-11T11:02:49;15.80;99.90
2967;DHT22;1493;51.496;7.210;2022-11-11T11:05:24;16.30;99.90
2967;DHT22;1493;51.496;7.210;2022-11-11T11:07:54;17.20;99.90
2967;DHT22;1493;51.496;7.210;2022-11-11T11:10:29;18.10;99.90
2967;DHT22;1493;51.496;7.210;2022-11-11T11:13:02;18.80;99.90
2967;DHT22;1493;51.496;7.210;2022-11-11T11:15:31;19.60;99.90
2967;DHT22;1493;51.496;7.210;2022-11-11T11:18:03;19.90;99.90
2967;DHT22;1493;51.496;7.210;2022-11-11T11:20:36;20.20;99.90
2967;DHT22;1493;51.496;7.210;2022-11-11T11:23:03;21.10;99.90
2967;DHT22;1493;51.496;7.210;2022-11-11T11:25:31;21.70;99.90
2967;DHT22;1493;51.496;7.210;2022-11-11T11:28:07;21.80;99.90
2967;DHT22;1493;51.496;7.210;2022-11-11T11:30:35;21.30;99.90
2967;DHT22;1493;51.496;7.210;2022-11-11T11:33:03;22.00;99.90
2967;DHT22;1493;51.496;7.210;2022-11-11T11:35:37;22.60;99.90
2967;DHT22;1493;51.496;7.210;2022-11-11T11:38:05;22.40;99.90
2967;DHT22;1493;51.496;7.210;2022-11-11T11:40:47;22.90;99.90
2967;DHT22;1493;51.496;7.210;2022-11-11T11:43:32;22.90;99.90
2967;DHT22;1493;51.496;7.210;2022-11-11T11:46:00;23.70;99.90
2967;DHT22;1493;51.496;7.210;2022-11-11T11:48:38;23.20;97.30
2967;DHT22;1493;51.496;7.210;2022-11-11T11:51:18;23.10;97.20
2967;DHT22;1493;51.496;7.210;2022-11-11T11:53:54;22.60;96.00
2967;DHT22;1493;51.496;7.210;2022-11-11T11:56:33;21.40;95.10
2967;DHT22;1493;51.496;7.210;2022-11-11T11:59:08;21.10;95.60
2967;DHT22;1493;51.496;7.210;2022-11-11T12:01:45;21.40;95.40
2967;DHT22;1493;51.496;7.210;2022-11-11T12:04:44;21.00;95.50
2967;DHT22;1493;51.496;7.210;2022-11-11T12:07:31;20.60;96.60
2967;DHT22;1493;51.496;7.210;2022-11-11T12:10:07;20.10;96.10
2967;DHT22;1493;51.496;7.210;2022-11-11T12:12:43;19.80;96.80
2967;DHT22;1493;51.496;7.210;2022-11-11T12:15:20;19.30;98.10
2967;DHT22;1493;51.496;7.210;2022-11-11T12:17:55;19.10;97.60
2967;DHT22;1493;51.496;7.210;2022-11-11T12:20:27;18.80;98.00
2967;DHT22;1493;51.496;7.210;2022-11-11T12:23:20;18.50;98.90
2967;DHT22;1493;51.496;7.210;2022-11-11T12:25:58;18.20;99.90
2967;DHT22;1493;51.496;7.210;2022-11-11T12:28:40;18.10;99.90
2967;DHT22;1493;51.496;7.210;2022-11-11T12:31:16;17.70;99.90
2967;DHT22;1493;51.496;7.210;2022-11-11T12:33:59;17.50;99.90
2967;DHT22;1493;51.496;7.210;2022-11-11T12:36:34;17.70;99.90
2967;DHT22;1493;51.496;7.210;2022-11-11T12:39:05;17.50;99.90
2967;DHT22;1493;51.496;7.210;2022-11-11T12:41:48;17.40;99.90
2967;DHT22;1493;51.496;7.210;2022-11-11T12:44:18;17.40;99.90
2967;DHT22;1493;51.496;7.210;2022-11-11T12:47:00;17.30;99.90
2967;DHT22;1493;51.496;7.210;2022-11-11T12:49:44;17.00;99.90
2967;DHT22;1493;51.496;7.210;2022-11-11T12:52:22;16.90;99.90
2967;DHT22;1493;51.496;7.210;2022-11-11T12:55:02;17.00;99.90
2967;DHT22;1493;51.496;7.210;2022-11-11T12:57:40;16.90;99.90
2967;DHT22;1493;51.496;7.210;2022-11-11T13:00:17;16.70;99.90
2967;DHT22;1493;51.496;7.210;2022-11-11T13:03:11;16.60;99.90
2967;DHT22;1493;51.496;7.210;2022-11-11T13:05:44;16.60;99.90
2967;DHT22;1493;51.496;7.210;2022-11-11T13:08:43;16.50;99.90
2967;DHT22;1493;51.496;7.210;2022-11-11T13:11:17;16.60;99.90
2967;DHT22;1493;51.496;7.210;2022-11-11T13:13:54;16.60;99.90
2967;DHT22;1493;51.496;7.210;2022-11-11T13:16:24;16.50;99.90
2967;DHT22;1493;51.496;7.210;2022-11-11T13:18:55;16.50;99.90
2967;DHT22;1493;51.496;7.210;2022-11-11T13:21:28;16.20;99.90
2967;DHT22;1493;51.496;7.210;2022-11-11T13:23:57;16.30;99.90
2967;DHT22;1493;51.496;7.210;2022-11-11T13:26:29;16.30;99.90
2967;DHT22;1493;51.496;7.210;2022-11-11T13:29:24;16.20;99.90
2967;DHT22;1493;51.496;7.210;2022-11-11T13:31:54;16.20;99.90
2967;DHT22;1493;51.496;7.210;2022-11-11T13:34:22;16.00;99.90
2967;DHT22;1493;51.496;7.210;2022-11-11T13:36:52;15.90;99.90
2967;DHT22;1493;51.496;7.210;2022-11-11T13:39:25;15.80;99.90
2967;DHT22;1493;51.496;7.210;2022-11-11T13:41:58;15.80;99.90
2967;DHT22;1493;51.496;7.210;2022-11-11T13:44:30;15.60;99.90
2967;DHT22;1493;51.496;7.210;2022-11-11T13:47:02;15.50;99.90
2967;DHT22;1493;51.496;7.210;2022-11-11T13:49:32;15.40;99.90
2967;DHT22;1493;51.496;7.210;2022-11-11T13:52:02;15.50;99.90
2967;DHT22;1493;51.496;7.210;2022-11-11T13:54:31;15.40;99.90
2967;DHT22;1493;51.496;7.210;2022-11-11T13:57:06;15.30;99.90
2967;DHT22;1493;51.496;7.210;2022-11-11T13:59:36;15.20;99.90
2967;DHT22;1493;51.496;7.210;2022-11-11T14:02:27;15.40;99.90
2967;DHT22;1493;51.496;7.210;2022-11-11T14:05:22;15.40;99.90
2967;DHT22;1493;51.496;7.210;2022-11-11T14:07:53;15.20;99.90
2967;DHT22;1493;51.496;7.210;2022-11-11T14:13:40;15.00;99.90
2967;DHT22;1493;51.496;7.210;2022-11-11T14:17:01;15.00;99.90
2967;DHT22;1493;51.496;7.210;2022-11-11T14:18:58;15.00;99.90
2967;DHT22;1493;51.496;7.210;2022-11-11T14:21:48;14.90;99.90
2967;DHT22;1493;51.496;7.210;2022-11-11T14:24:22;14.80;99.90
2967;DHT22;1493;51.496;7.210;2022-11-11T14:26:58;14.70;99.90
2967;DHT22;1493;51.496;7.210;2022-11-11T14:29:30;14.60;99.90
2967;DHT22;1493;51.496;7.210;2022-11-11T14:32:11;14.50;99.90
2967;DHT22;1493;51.496;7.210;2022-11-11T14:34:58;14.40;99.90
2967;DHT22;1493;51.496;7.210;2022-11-11T14:37:40;14.40;99.90
2967;DHT22;1493;51.496;7.210;2022-11-11T14:40:09;14.30;99.90
2967;DHT22;1493;51.496;7.210;2022-11-11T14:42:46;14.20;99.90
2967;DHT22;1493;51.496;7.210;2022-11-11T14:48:57;14.00;99.90
2967;DHT22;1493;51.496;7.210;2022-11-11T14:51:47;13.90;99.90
2967;DHT22;1493;51.496;7.210;2022-11-11T14:54:28;13.90;99.90
2967;DHT22;1493;51.496;7.210;2022-11-11T14:57:04;13.80;99.90
2967;DHT22;1493;51.496;7.210;2022-11-11T14:59:32;13.70;99.90
2967;DHT22;1493;51.496;7.210;2022-11-11T15:02:01;13.60;99.90
2967;DHT22;1493;51.496;7.210;2022-11-11T15:04:37;13.60;99.90
2967;DHT22;1493;51.496;7.210;2022-11-11T15:07:05;13.50;99.90
2967;DHT22;1493;51.496;7.210;2022-11-11T15:13:01;13.50;99.90
2967;DHT22;1493;51.496;7.210;2022-11-11T15:15:39;13.40;99.90
2967;DHT22;1493;51.496;7.210;2022-11-11T15:18:18;13.30;99.90
2967;DHT22;1493;51.496;7.210;2022-11-11T15:20:58;13.30;99.90
2967;DHT22;1493;51.496;7.210;2022-11-11T15:23:31;13.20;99.90
2967;DHT22;1493;51.496;7.210;2022-11-11T15:26:05;13.20;99.90
2967;DHT22;1493;51.496;7.210;2022-11-11T15:29:03;13.20;99.90
2967;DHT22;1493;51.496;7.210;2022-11-11T15:31:35;13.10;99.90
2967;DHT22;1493;51.496;7.210;2022-11-11T15:34:17;13.10;99.90
2967;DHT22;1493;51.496;7.210;2022-11-11T15:36:54;13.00;99.90
2967;DHT22;1493;51.496;7.210;2022-11-11T15:39:24;12.90;99.90
2967;DHT22;1493;51.496;7.210;2022-11-11T15:41:52;12.90;99.90
2967;DHT22;1493;51.496;7.210;2022-11-11T15:44:22;12.80;99.90
2967;DHT22;1493;51.496;7.210;2022-11-11T15:46:50;12.80;99.90
2967;DHT22;1493;51.496;7.210;2022-11-11T15:49:35;12.80;99.90
2967;DHT22;1493;51.496;7.210;2022-11-11T15:52:04;12.70;99.90
2967;DHT22;1493;51.496;7.210;2022-11-11T15:54:32;12.70;99.90
2967;DHT22;1493;51.496;7.210;2022-11-11T15:57:14;12.60;99.90
2967;DHT22;1493;51.496;7.210;2022-11-11T15:59:41;12.60;99.90
2967;DHT22;1493;51.496;7.210;2022-11-11T16:02:16;12.50;99.90
2967;DHT22;1493;51.496;7.210;2022-11-11T16:04:53;12.50;99.90
2967;DHT22;1493;51.496;7.210;2022-11-11T16:07:26;12.50;99.90
2967;DHT22;1493;51.496;7.210;2022-11-11T16:09:57;12.40;99.90
2967;DHT22;1493;51.496;7.210;2022-11-11T16:12:29;12.40;99.90
2967;DHT22;1493;51.496;7.210;2022-11-11T16:14:57;12.30;99.90
2967;DHT22;1493;51.496;7.210;2022-11-11T16:17:30;12.30;99.90
2967;DHT22;1493;51.496;7.210;2022-11-11T16:19:59;12.20;99.90
2967;DHT22;1493;51.496;7.210;2022-11-11T16:22:30;12.20;99.90
2967;DHT22;1493;51.496;7.210;2022-11-11T16:24:58;12.10;99.90
2967;DHT22;1493;51.496;7.210;2022-11-11T16:27:29;12.10;99.90
2967;DHT22;1493;51.496;7.210;2022-11-11T16:30:16;12.00;99.90
2967;DHT22;1493;51.496;7.210;2022-11-11T16:32:43;12.00;99.90
2967;DHT22;1493;51.496;7.210;2022-11-11T16:35:25;11.90;99.90
2967;DHT22;1493;51.496;7.210;2022-11-11T16:37:54;11.90;99.90
2967;DHT22;1493;51.496;7.210;2022-11-11T16:40:41;11.80;99.90
2967;DHT22;1493;51.496;7.210;2022-11-11T16:43:18;11.80;99.90
2967;DHT22;1493;51.496;7.210;2022-11-11T16:45:57;11.70;99.90